Time;durP1;ratioP1;P1;durP2;ratioP2;P2;SDS_P1;SDS_P2;PMS_P1;PMS_P2;Temp;Humidity;BMP_temperature;BMP_pressure;BME280_temperature;BME280_humidity;BME280_pressure;Samples;Min_cycle;Max_cycle;Signal;HPM_P1;HPM_P2
2022/07/20 00:00:40;;;;;;;9.30;4.22;;;23.90;55.50;;;;;;5081694;28;20051;-76
2022/07/20 00:03:08;;;;;;;6.30;3.35;;;23.90;56.00;;;;;;5115456;28;20502;-74
2022/07/20 00:05:34;;;;;;;7.80;3.83;;;23.80;55.50;;;;;;5115288;28;20036;-75
2022/07/20 00:08:00;;;;;;;4.45;3.47;;;23.80;54.90;;;;;;5115180;28;20051;-76
2022/07/20 00:13:12;;;;;;;5.75;3.60;;;23.80;54.00;;;;;;5115253;28;20057;-75
2022/07/20 00:15:37;;;;;;;6.03;3.50;;;23.70;54.50;;;;;;5115280;28;20080;-76
2022/07/20 00:18:03;;;;;;;6.40;4.40;;;23.70;54.50;;;;;;5115142;28;20100;-77
2022/07/20 00:20:29;;;;;;;4.93;3.38;;;23.60;54.50;;;;;;5114880;28;20088;-76
2022/07/20 00:22:56;;;;;;;4.82;3.42;;;23.60;54.70;;;;;;5114738;28;20040;-74
2022/07/20 00:25:22;;;;;;;5.85;3.75;;;23.50;54.60;;;;;;5077843;28;20052;-77
2022/07/20 00:27:48;;;;;;;8.85;3.97;;;23.50;54.80;;;;;;5077359;28;20089;-79
2022/07/20 00:30:14;;;;;;;6.22;3.63;;;23.50;54.70;;;;;;5111552;28;20062;-76
2022/07/20 00:32:40;;;;;;;9.30;4.25;;;23.40;54.90;;;;;;5111410;28;20043;-77
2022/07/20 00:35:09;;;;;;;5.20;3.03;;;23.40;55.00;;;;;;5111696;28;20093;-75
2022/07/20 00:37:34;;;;;;;4.50;4.10;;;23.40;55.70;;;;;;5111288;28;20043;-74
2022/07/20 00:40:00;;;;;;;5.63;3.78;;;23.30;55.70;;;;;;5111553;28;20052;-75
2022/07/20 00:42:26;;;;;;;4.50;4.10;;;23.20;56.30;;;;;;5077522;28;20125;-80
2022/07/20 00:44:52;;;;;;;5.88;4.05;;;23.20;56.60;;;;;;5093782;28;20086;-76
2022/07/20 00:47:18;;;;;;;4.05;3.65;;;23.10;57.00;;;;;;5077062;28;20098;-78
2022/07/20 00:49:44;;;;;;;7.28;3.55;;;23.00;57.20;;;;;;5076873;28;20059;-76
2022/07/20 00:52:09;;;;;;;6.22;3.70;;;23.00;57.50;;;;;;5111169;28;20036;-76
2022/07/20 00:54:35;;;;;;;8.65;3.90;;;23.00;57.60;;;;;;5110835;28;20491;-75
2022/07/20 00:57:02;;;;;;;4.82;3.72;;;23.00;57.50;;;;;;5095047;28;20395;-76
2022/07/20 00:59:28;;;;;;;5.68;4.03;;;23.00;57.70;;;;;;5077009;28;20047;-78
2022/07/20 01:01:55;;;;;;;6.80;4.22;;;23.00;57.80;;;;;;5077029;28;20082;-78
2022/07/20 01:04:21;;;;;;;5.28;4.00;;;23.00;57.90;;;;;;5110794;28;20093;-77
2022/07/20 01:06:47;;;;;;;4.82;3.80;;;22.90;58.20;;;;;;5110566;28;20392;-75
2022/07/20 01:09:13;;;;;;;5.25;4.72;;;22.90;58.00;;;;;;5110709;28;20427;-75
2022/07/20 01:11:39;;;;;;;6.07;4.20;;;22.80;57.90;;;;;;5110943;28;20054;-76
2022/07/20 01:14:06;;;;;;;4.88;4.18;;;22.80;57.90;;;;;;5110937;28;20079;-78
2022/07/20 01:16:33;;;;;;;4.88;4.10;;;22.80;58.20;;;;;;5076672;28;20438;-76
2022/07/20 01:18:59;;;;;;;4.22;3.83;;;22.70;58.30;;;;;;5110512;28;20040;-77
2022/07/20 01:21:25;;;;;;;6.97;4.10;;;22.70;58.30;;;;;;5110829;28;20096;-77
2022/07/20 01:23:51;;;;;;;7.68;4.07;;;22.60;58.40;;;;;;5110431;28;20556;-75
2022/07/20 01:26:18;;;;;;;8.23;5.18;;;22.60;58.60;;;;;;5110200;28;20056;-77
2022/07/20 01:28:45;;;;;;;5.38;4.35;;;22.60;58.80;;;;;;5076773;28;20044;-75
2022/07/20 01:31:10;;;;;;;6.13;4.07;;;22.50;58.80;;;;;;5110296;28;20178;-76
2022/07/20 01:33:36;;;;;;;6.85;4.32;;;22.50;58.90;;;;;;5110247;28;20123;-76
2022/07/20 01:36:02;;;;;;;5.55;4.05;;;22.40;59.00;;;;;;5110158;28;20119;-76
2022/07/20 01:38:28;;;;;;;4.55;3.88;;;22.40;59.10;;;;;;5110305;28;20097;-76
2022/07/20 01:40:53;;;;;;;7.55;4.18;;;22.40;59.30;;;;;;5110108;28;20558;-74
2022/07/20 01:43:19;;;;;;;8.00;4.25;;;22.40;59.40;;;;;;5110125;28;20123;-76
2022/07/20 01:45:45;;;;;;;6.43;4.68;;;22.30;59.50;;;;;;5110090;28;20373;-76
2022/07/20 01:48:10;;;;;;;5.43;4.55;;;22.20;59.80;;;;;;5076194;28;20048;-72
2022/07/20 01:50:40;;;;;;;5.57;4.20;;;22.20;59.60;;;;;;5092937;28;20068;-75
2022/07/20 01:53:07;;;;;;;6.10;4.47;;;22.10;59.80;;;;;;5109686;28;20043;-75
2022/07/20 01:55:34;;;;;;;6.55;4.55;;;22.20;59.90;;;;;;5076277;28;20059;-76
2022/07/20 01:58:00;;;;;;;6.22;3.97;;;22.20;59.80;;;;;;5109651;28;20044;-75
2022/07/20 02:00:25;;;;;;;6.10;5.00;;;22.10;59.90;;;;;;5110005;28;20102;-77
2022/07/20 02:02:51;;;;;;;6.38;4.55;;;22.10;59.90;;;;;;5110459;28;20044;-74
2022/07/20 02:05:18;;;;;;;6.28;4.30;;;22.10;59.90;;;;;;5109782;28;20036;-74
2022/07/20 02:07:44;;;;;;;7.95;4.68;;;22.10;60.20;;;;;;5109523;28;20505;-76
2022/07/20 02:10:12;;;;;;;5.32;4.38;;;22.00;60.20;;;;;;5109666;28;20040;-77
2022/07/20 02:12:38;;;;;;;5.28;4.70;;;22.00;60.20;;;;;;5109561;28;20044;-75
2022/07/20 02:15:07;;;;;;;6.50;4.40;;;22.00;60.40;;;;;;5075668;28;20044;-76
2022/07/20 02:17:32;;;;;;;5.40;4.80;;;21.90;60.50;;;;;;5074953;28;20028;-75
2022/07/20 02:19:58;;;;;;;5.45;4.78;;;21.90;60.80;;;;;;5109523;28;20093;-74
2022/07/20 02:22:24;;;;;;;5.75;4.80;;;21.90;61.00;;;;;;5075626;28;20051;-73
2022/07/20 02:24:49;;;;;;;10.43;4.57;;;21.90;61.10;;;;;;5109048;28;20044;-78
2022/07/20 02:27:15;;;;;;;5.25;4.53;;;21.80;61.10;;;;;;5108845;28;20059;-76
2022/07/20 02:29:41;;;;;;;5.00;4.50;;;21.80;61.10;;;;;;5075436;28;20040;-76
2022/07/20 02:32:07;;;;;;;8.18;5.03;;;21.70;61.20;;;;;;5092438;28;20040;-76
2022/07/20 02:34:32;;;;;;;8.93;4.88;;;21.70;61.10;;;;;;5075329;28;20486;-75
2022/07/20 02:36:58;;;;;;;6.60;4.88;;;21.70;60.90;;;;;;5109176;28;20047;-76
2022/07/20 02:39:24;;;;;;;5.65;4.78;;;21.70;60.70;;;;;;5109206;28;20097;-76
2022/07/20 02:41:50;;;;;;;8.07;4.90;;;21.60;60.80;;;;;;5075465;28;20075;-76
2022/07/20 02:44:16;;;;;;;7.05;4.70;;;21.60;61.00;;;;;;5075590;28;20048;-75
2022/07/20 02:46:41;;;;;;;5.78;4.68;;;21.60;61.10;;;;;;5108953;28;20505;-76
2022/07/20 02:49:07;;;;;;;6.00;4.60;;;21.60;61.30;;;;;;5058386;28;20124;-75
2022/07/20 02:51:33;;;;;;;6.68;4.85;;;21.60;61.20;;;;;;5109326;28;20044;-73
2022/07/20 02:53:59;;;;;;;5.43;4.68;;;21.60;61.20;;;;;;5108966;28;20089;-76
2022/07/20 02:56:25;;;;;;;7.22;4.55;;;21.50;61.30;;;;;;5108948;28;20028;-77
2022/07/20 02:58:50;;;;;;;6.18;5.28;;;21.50;61.30;;;;;;5108933;28;20126;-75
2022/07/20 03:01:16;;;;;;;9.60;4.97;;;21.50;61.60;;;;;;5109058;28;20124;-74
2022/07/20 03:03:42;;;;;;;9.27;5.18;;;21.40;61.80;;;;;;5108987;28;20052;-74
2022/07/20 03:06:09;;;;;;;5.70;4.97;;;21.50;60.80;;;;;;5109211;28;20419;-75
2022/07/20 03:08:35;;;;;;;9.30;5.03;;;21.50;60.00;;;;;;5109058;28;20473;-76
2022/07/20 03:11:01;;;;;;;6.75;5.15;;;21.50;60.00;;;;;;5108977;28;20051;-75
2022/07/20 03:13:27;;;;;;;5.88;4.10;;;21.60;60.10;;;;;;5108810;28;20044;-73
2022/07/20 03:15:53;;;;;;;6.40;5.10;;;21.60;59.30;;;;;;5108821;28;20032;-74
2022/07/20 03:18:19;;;;;;;5.82;4.63;;;21.60;59.40;;;;;;5109033;28;20387;-75
2022/07/20 03:20:45;;;;;;;8.07;4.50;;;21.60;59.60;;;;;;5058700;28;20105;-75
2022/07/20 03:23:10;;;;;;;7.55;4.32;;;21.60;59.40;;;;;;5075009;28;20044;-74
2022/07/20 03:25:36;;;;;;;6.50;4.97;;;21.50;59.20;;;;;;5108475;28;20087;-78
2022/07/20 03:28:02;;;;;;;5.72;4.60;;;21.50;59.00;;;;;;5109185;28;20040;-73
2022/07/20 03:30:28;;;;;;;6.95;4.80;;;21.40;58.80;;;;;;5078740;28;20085;-74
2022/07/20 03:32:54;;;;;;;8.38;5.15;;;21.40;58.60;;;;;;5078471;28;20476;-76
2022/07/20 03:35:20;;;;;;;5.47;4.65;;;21.30;58.50;;;;;;5112142;28;20043;-76
2022/07/20 03:37:46;;;;;;;7.07;4.40;;;21.40;58.40;;;;;;5112174;28;20056;-75
2022/07/20 03:40:12;;;;;;;6.78;4.47;;;21.40;58.80;;;;;;5112391;28;20047;-77
2022/07/20 03:42:38;;;;;;;5.60;4.85;;;21.30;58.80;;;;;;5078306;28;20119;-76
2022/07/20 03:45:04;;;;;;;5.40;4.82;;;21.20;58.60;;;;;;5112107;28;20124;-74
2022/07/20 03:47:30;;;;;;;7.57;4.85;;;21.20;58.50;;;;;;5112110;28;20051;-76
2022/07/20 03:49:56;;;;;;;5.75;4.45;;;21.20;58.60;;;;;;5112220;28;20044;-76
2022/07/20 03:52:23;;;;;;;7.07;4.80;;;21.10;58.70;;;;;;5078441;28;20036;-77
2022/07/20 03:54:48;;;;;;;6.85;4.60;;;21.10;58.90;;;;;;5112165;28;20035;-76
2022/07/20 03:57:14;;;;;;;9.23;4.68;;;21.10;58.70;;;;;;5112302;28;20047;-76
2022/07/20 03:59:41;;;;;;;6.82;4.78;;;21.10;58.70;;;;;;5112069;28;20046;-76
2022/07/20 04:02:06;;;;;;;5.07;4.57;;;21.10;58.70;;;;;;5112307;28;20043;-77
2022/07/20 04:04:32;;;;;;;7.63;4.70;;;21.10;59.10;;;;;;5112065;28;20040;-74
2022/07/20 04:06:58;;;;;;;6.82;4.65;;;21.10;59.20;;;;;;5094955;28;20051;-74
2022/07/20 04:12:11;;;;;;;6.43;5.38;;;21.10;58.30;;;;;;5111899;28;20055;-73
2022/07/20 04:14:36;;;;;;;8.25;5.13;;;21.10;58.10;;;;;;5111470;28;20051;-75
2022/07/20 04:17:02;;;;;;;6.28;5.07;;;21.10;57.80;;;;;;5112543;28;20044;-75
2022/07/20 04:19:28;;;;;;;8.02;5.38;;;21.10;57.50;;;;;;5113586;28;20039;-72
2022/07/20 04:22:00;;;;;;;7.82;5.30;;;21.20;57.50;;;;;;5078123;28;20399;-74
2022/07/20 04:24:26;;;;;;;8.38;5.00;;;21.20;57.70;;;;;;5078253;28;20062;-76
2022/07/20 04:26:52;;;;;;;8.63;5.13;;;21.20;57.90;;;;;;5107715;28;20397;-76
2022/07/20 04:29:19;;;;;;;7.63;5.30;;;21.20;58.00;;;;;;5094635;28;20076;-77
2022/07/20 04:31:45;;;;;;;7.30;5.47;;;21.20;58.30;;;;;;5094730;28;20044;-73
2022/07/20 04:34:11;;;;;;;7.78;4.90;;;21.20;58.50;;;;;;5094806;28;20430;-77
2022/07/20 04:36:36;;;;;;;8.48;5.18;;;21.10;58.50;;;;;;5094279;28;20515;-76
2022/07/20 04:39:02;;;;;;;7.13;5.20;;;21.10;58.70;;;;;;5094531;28;20361;-77
2022/07/20 04:41:28;;;;;;;7.80;5.15;;;21.10;58.90;;;;;;5093668;28;20036;-73
2022/07/20 04:43:53;;;;;;;8.07;4.95;;;21.20;59.00;;;;;;5094548;28;20051;-75
2022/07/20 04:46:19;;;;;;;7.57;4.97;;;21.20;58.90;;;;;;5094269;28;20040;-78
2022/07/20 04:48:45;;;;;;;6.47;4.95;;;21.20;58.90;;;;;;5094193;28;20431;-75
2022/07/20 04:51:10;;;;;;;5.22;4.45;;;21.20;59.00;;;;;;5093984;28;20048;-75
2022/07/20 04:53:36;;;;;;;5.85;5.07;;;21.30;59.10;;;;;;5111070;28;20127;-76
2022/07/20 04:56:02;;;;;;;5.78;4.63;;;21.30;59.00;;;;;;5093972;28;20044;-76
2022/07/20 04:58:31;;;;;;;6.45;4.47;;;21.40;59.00;;;;;;5093791;28;20043;-74
2022/07/20 05:00:57;;;;;;;7.57;4.93;;;21.40;59.10;;;;;;5093862;28;20048;-78
2022/07/20 05:03:23;;;;;;;13.93;5.78;;;21.40;58.80;;;;;;5093829;28;20048;-78
2022/07/20 05:05:49;;;;;;;9.75;5.32;;;21.50;58.70;;;;;;5093817;28;20423;-76
2022/07/20 05:08:14;;;;;;;6.93;4.88;;;21.50;59.30;;;;;;5093683;28;20117;-77
2022/07/20 05:10:40;;;;;;;7.20;5.28;;;21.50;59.20;;;;;;5060138;28;20035;-75
2022/07/20 05:13:06;;;;;;;5.70;4.88;;;21.50;59.70;;;;;;5093767;28;20044;-76
2022/07/20 05:15:31;;;;;;;8.00;5.30;;;21.60;59.40;;;;;;5093536;28;20036;-76
2022/07/20 05:17:57;;;;;;;6.88;5.43;;;21.70;59.20;;;;;;5093481;28;20048;-73
2022/07/20 05:20:23;;;;;;;6.43;4.85;;;21.70;58.90;;;;;;5093817;28;20052;-76
2022/07/20 05:22:48;;;;;;;7.93;5.40;;;21.80;58.70;;;;;;5094600;28;20032;-75
2022/07/20 05:25:14;;;;;;;10.40;5.57;;;21.90;58.50;;;;;;5096035;28;20109;-73
2022/07/20 05:27:40;;;;;;;7.70;5.82;;;22.00;58.60;;;;;;5079971;28;20090;-77
2022/07/20 05:30:06;;;;;;;7.85;5.35;;;22.10;58.50;;;;;;5114594;28;20051;-73
2022/07/20 05:32:32;;;;;;;7.60;5.15;;;22.10;58.40;;;;;;5113878;28;20042;-75
2022/07/20 05:34:58;;;;;;;8.35;5.05;;;22.20;58.70;;;;;;5113398;28;20043;-76
2022/07/20 05:37:24;;;;;;;5.88;4.93;;;22.40;58.50;;;;;;5113493;28;20040;-73
2022/07/20 05:39:50;;;;;;;8.25;5.45;;;22.40;58.60;;;;;;5113029;28;20050;-73
2022/07/20 05:42:15;;;;;;;10.88;6.25;;;22.50;58.90;;;;;;5112782;28;20035;-72
2022/07/20 05:44:41;;;;;;;13.32;5.13;;;22.50;59.30;;;;;;5112754;28;20035;-72
2022/07/20 05:47:07;;;;;;;8.50;5.20;;;22.70;59.20;;;;;;5112886;28;20039;-73
2022/07/20 05:49:41;;;;;;;10.68;5.30;;;22.80;59.10;;;;;;5112879;28;20039;-75
2022/07/20 05:52:07;;;;;;;11.95;5.53;;;22.90;58.40;;;;;;5078073;28;20621;-74
2022/07/20 05:54:33;;;;;;;7.38;5.35;;;23.10;56.70;;;;;;5113058;28;20118;-75
2022/07/20 05:56:58;;;;;;;7.70;5.00;;;23.40;54.80;;;;;;5113128;28;20505;-75
2022/07/20 05:59:24;;;;;;;8.68;5.43;;;23.50;55.00;;;;;;5079247;28;20415;-75
2022/07/20 06:01:50;;;;;;;12.13;4.93;;;23.60;54.30;;;;;;5113268;28;20047;-74
2022/07/20 06:04:15;;;;;;;9.00;5.20;;;23.80;53.50;;;;;;5113050;28;20100;-74
2022/07/20 06:06:41;;;;;;;12.02;6.80;;;23.90;53.40;;;;;;5079382;28;20121;-73
2022/07/20 06:09:08;;;;;;;12.15;6.07;;;24.00;53.50;;;;;;5112842;28;20050;-75
2022/07/20 06:11:34;;;;;;;10.02;6.10;;;24.20;53.40;;;;;;5095370;28;20036;-74
2022/07/20 06:14:00;;;;;;;11.80;5.75;;;24.20;53.90;;;;;;5112237;28;20036;-72
2022/07/20 06:16:26;;;;;;;7.95;6.07;;;24.20;54.90;;;;;;5112430;28;20059;-73
2022/07/20 06:18:52;;;;;;;11.25;6.75;;;24.30;55.40;;;;;;5112106;28;20088;-72
2022/07/20 06:21:18;;;;;;;8.82;6.70;;;24.30;56.00;;;;;;5112590;28;20047;-75
2022/07/20 06:23:44;;;;;;;15.70;6.65;;;24.30;56.70;;;;;;5111819;28;20399;-76
2022/07/20 06:26:09;;;;;;;9.63;6.78;;;24.30;57.00;;;;;;5078660;28;20056;-75
2022/07/20 06:28:35;;;;;;;11.80;7.47;;;24.30;58.00;;;;;;5112746;28;20043;-75
2022/07/20 06:31:01;;;;;;;9.77;7.90;;;24.30;58.60;;;;;;5112526;28;20122;-77
2022/07/20 06:33:27;;;;;;;11.95;9.02;;;24.30;59.50;;;;;;5079358;28;20122;-76
2022/07/20 06:35:52;;;;;;;15.13;9.02;;;24.40;60.00;;;;;;5078857;28;20035;-79
2022/07/20 06:38:18;;;;;;;14.90;10.38;;;24.40;61.10;;;;;;5095495;28;20082;-78
2022/07/20 06:40:44;;;;;;;12.73;9.35;;;24.50;60.90;;;;;;5095400;28;20046;-74
2022/07/20 06:43:10;;;;;;;14.10;10.52;;;24.50;61.30;;;;;;5078737;28;20042;-76
2022/07/20 06:45:36;;;;;;;14.43;10.27;;;24.60;62.50;;;;;;5095420;28;20116;-73
2022/07/20 06:48:02;;;;;;;14.32;10.98;;;24.60;63.20;;;;;;5095571;28;20098;-74
2022/07/20 06:50:28;;;;;;;14.32;10.82;;;24.60;63.50;;;;;;5095295;28;20042;-76
2022/07/20 06:52:54;;;;;;;17.13;12.68;;;24.70;63.80;;;;;;5078532;28;20040;-76
2022/07/20 06:55:20;;;;;;;13.63;12.13;;;24.70;64.60;;;;;;5078837;28;20043;-77
2022/07/20 06:57:45;;;;;;;19.75;13.25;;;24.80;65.00;;;;;;5095642;28;20036;-76
2022/07/20 07:00:12;;;;;;;19.48;14.52;;;24.90;65.40;;;;;;5095302;28;20078;-75
2022/07/20 07:02:39;;;;;;;19.52;13.75;;;24.90;66.00;;;;;;5112795;28;20135;-73
2022/07/20 07:05:06;;;;;;;21.65;16.40;;;24.90;66.20;;;;;;5116809;28;20058;-78
2022/07/20 07:07:31;;;;;;;20.67;16.05;;;25.00;66.50;;;;;;5116433;28;20039;-76
2022/07/20 07:09:57;;;;;;;24.45;17.48;;;25.00;67.00;;;;;;5099577;28;20151;-77
2022/07/20 07:12:23;;;;;;;24.52;16.55;;;25.10;66.70;;;;;;5099778;28;20055;-78
2022/07/20 07:14:49;;;;;;;21.95;15.02;;;25.20;67.40;;;;;;5116462;28;20074;-75
2022/07/20 07:17:15;;;;;;;29.20;20.92;;;25.30;67.70;;;;;;5082736;28;20196;-77
2022/07/20 07:19:41;;;;;;;25.85;18.13;;;25.40;67.70;;;;;;5082543;28;20051;-76
2022/07/20 07:22:07;;;;;;;24.77;19.70;;;25.40;68.00;;;;;;5116744;28;20039;-79
2022/07/20 07:24:33;;;;;;;28.88;20.48;;;25.50;67.90;;;;;;5083476;28;20051;-75
2022/07/20 07:26:58;;;;;;;31.75;21.02;;;25.50;67.50;;;;;;5116981;28;20052;-79
2022/07/20 07:29:25;;;;;;;25.55;20.00;;;25.60;67.20;;;;;;5117263;28;20055;-75
2022/07/20 07:31:51;;;;;;;30.58;20.88;;;25.60;67.50;;;;;;5083067;28;20047;-80
2022/07/20 07:34:17;;;;;;;27.85;19.10;;;25.60;68.00;;;;;;5116460;28;20112;-77
2022/07/20 07:36:42;;;;;;;30.27;22.33;;;25.70;68.00;;;;;;5116112;28;20043;-78
2022/07/20 07:39:08;;;;;;;29.08;21.58;;;25.80;67.70;;;;;;5065581;28;20036;-78
2022/07/20 07:41:34;;;;;;;30.25;21.73;;;25.80;67.30;;;;;;5116477;28;20125;-79
2022/07/20 07:44:00;;;;;;;34.20;24.15;;;25.90;67.70;;;;;;5098874;28;20035;-79
2022/07/20 07:46:25;;;;;;;33.33;24.10;;;26.00;67.10;;;;;;5082098;28;20051;-80
2022/07/20 07:48:51;;;;;;;32.42;22.38;;;26.00;67.20;;;;;;5115806;28;20093;-81
2022/07/20 07:51:17;;;;;;;33.88;24.70;;;26.00;67.60;;;;;;5082124;28;20036;-79
2022/07/20 07:53:43;;;;;;;30.33;22.10;;;26.10;67.50;;;;;;5116015;28;20038;-82
2022/07/20 07:56:09;;;;;;;31.75;21.13;;;26.10;67.20;;;;;;5115980;28;20039;-78
2022/07/20 07:58:35;;;;;;;29.40;24.65;;;26.10;66.50;;;;;;5082156;28;20046;-80
2022/07/20 08:01:00;;;;;;;29.90;21.67;;;26.20;66.60;;;;;;5115754;28;20127;-79
2022/07/20 08:03:26;;;;;;;29.23;23.50;;;26.30;66.60;;;;;;5098462;28;20113;-82
2022/07/20 08:05:52;;;;;;;28.80;22.98;;;26.30;66.60;;;;;;5097954;28;20082;-77
2022/07/20 08:08:17;;;;;;;28.00;23.10;;;26.40;66.00;;;;;;5098491;28;20163;-78
2022/07/20 08:10:44;;;;;;;34.10;26.00;;;26.30;66.00;;;;;;5098391;28;20039;-78
2022/07/20 08:13:10;;;;;;;26.70;23.08;;;26.40;66.00;;;;;;5081553;28;20051;-80
2022/07/20 08:15:37;;;;;;;32.63;22.90;;;26.40;65.30;;;;;;5096723;28;20036;-81
2022/07/20 08:18:03;;;;;;;33.80;24.48;;;26.50;65.20;;;;;;5097921;28;20043;-78
2022/07/20 08:20:29;;;;;;;26.52;22.60;;;26.50;65.10;;;;;;5081508;28;20122;-79
2022/07/20 08:22:55;;;;;;;31.30;25.30;;;26.60;65.40;;;;;;5097705;28;20071;-76
2022/07/20 08:25:22;;;;;;;25.15;22.45;;;26.60;65.60;;;;;;5098121;28;20048;-76
2022/07/20 08:27:48;;;;;;;24.77;20.48;;;26.60;65.60;;;;;;5090760;28;20056;-79
2022/07/20 08:30:14;;;;;;;29.42;24.75;;;26.80;64.70;;;;;;5073911;28;20044;-77
2022/07/20 08:32:40;;;;;;;28.02;23.50;;;26.80;64.10;;;;;;5091154;28;20128;-80
2022/07/20 08:35:06;;;;;;;28.98;23.88;;;26.90;64.10;;;;;;5074295;28;20119;-78
2022/07/20 08:37:32;;;;;;;35.55;24.23;;;27.00;64.60;;;;;;5090827;28;20040;-78
2022/07/20 08:40:01;;;;;;;29.17;23.92;;;27.00;64.00;;;;;;5090687;28;20089;-80
2022/07/20 08:42:26;;;;;;;28.88;24.58;;;27.10;64.00;;;;;;5090632;28;20045;-77
2022/07/20 08:44:52;;;;;;;30.52;23.85;;;27.20;64.00;;;;;;5056910;28;20043;-76
2022/07/20 08:47:21;;;;;;;27.20;22.88;;;27.20;64.20;;;;;;5090318;28;20131;-78
2022/07/20 08:49:49;;;;;;;32.00;23.85;;;27.20;63.40;;;;;;5090587;28;20409;-78
2022/07/20 08:52:16;;;;;;;28.33;23.60;;;27.10;62.00;;;;;;5073715;28;20037;-78
2022/07/20 08:54:42;;;;;;;31.13;23.92;;;27.10;61.70;;;;;;5040483;28;20037;-79
2022/07/20 08:57:13;;;;;;;29.98;22.50;;;27.10;61.20;;;;;;5090233;28;20041;-78
2022/07/20 08:59:39;;;;;;;29.75;22.13;;;27.00;61.60;;;;;;5090834;28;20392;-78
2022/07/20 09:02:07;;;;;;;31.63;23.75;;;27.00;61.80;;;;;;5090410;28;20042;-79
2022/07/20 09:04:49;;;;;;;29.08;22.48;;;27.10;62.30;;;;;;5073259;28;20079;-76
2022/07/20 09:07:15;;;;;;;27.40;21.85;;;27.10;62.30;;;;;;5073387;28;20068;-75
2022/07/20 09:09:41;;;;;;;24.73;18.65;;;27.10;61.80;;;;;;5090063;28;20045;-79
2022/07/20 09:12:07;;;;;;;22.05;17.52;;;27.10;60.10;;;;;;5090009;28;20453;-79
2022/07/20 09:14:48;;;;;;;19.73;14.82;;;27.10;59.20;;;;;;5056410;28;20037;-78
2022/07/20 09:17:22;;;;;;;21.13;15.57;;;27.00;57.80;;;;;;5089841;28;20045;-77
2022/07/20 09:20:14;;;;;;;22.88;16.30;;;27.10;56.70;;;;;;5072971;28;20048;-76
2022/07/20 09:22:40;;;;;;;22.63;17.20;;;27.10;58.90;;;;;;5071233;28;20067;-78
2022/07/20 09:25:07;;;;;;;22.85;16.88;;;27.10;58.00;;;;;;5089814;28;20040;-76
2022/07/20 09:27:34;;;;;;;26.15;17.38;;;27.20;58.30;;;;;;5088565;28;20056;-76
2022/07/20 09:30:15;;;;;;;25.45;17.67;;;27.20;58.70;;;;;;5092934;28;20052;-78
2022/07/20 09:33:01;;;;;;;24.98;17.13;;;27.30;59.00;;;;;;5092944;28;20044;-79
2022/07/20 09:35:34;;;;;;;19.90;15.88;;;27.40;58.70;;;;;;5092776;28;20052;-77
2022/07/20 09:38:07;;;;;;;23.73;16.27;;;27.40;59.40;;;;;;5110155;28;20086;-76
2022/07/20 09:40:41;;;;;;;22.88;14.90;;;27.50;58.60;;;;;;5093278;28;20113;-75
2022/07/20 09:43:08;;;;;;;15.75;14.10;;;27.60;56.90;;;;;;5076255;28;20070;-76
2022/07/20 09:45:35;;;;;;;19.35;12.93;;;27.70;56.40;;;;;;5075848;28;20048;-78
2022/07/20 09:48:04;;;;;;;17.67;13.50;;;27.60;55.20;;;;;;5092619;28;20052;-76
2022/07/20 09:50:38;;;;;;;17.60;12.20;;;27.70;54.70;;;;;;5092466;28;20135;-80
2022/07/20 09:53:06;;;;;;;22.05;12.10;;;27.90;53.80;;;;;;5092853;28;20426;-76
2022/07/20 09:55:33;;;;;;;16.85;12.52;;;27.90;52.90;;;;;;5093357;28;20123;-77
2022/07/20 09:58:00;;;;;;;21.05;12.73;;;28.00;53.50;;;;;;5093669;28;20373;-79
2022/07/20 10:00:27;;;;;;;15.63;11.98;;;28.10;53.50;;;;;;5093091;28;20113;-78
2022/07/20 10:02:56;;;;;;;17.48;13.80;;;28.20;53.60;;;;;;5059296;28;20055;-81
2022/07/20 10:05:22;;;;;;;19.70;13.05;;;28.30;53.30;;;;;;5093189;28;20043;-80
2022/07/20 10:07:49;;;;;;;17.08;12.90;;;28.30;53.40;;;;;;5092831;28;20050;-78
2022/07/20 10:10:15;;;;;;;15.90;13.70;;;28.30;53.40;;;;;;5093033;28;20044;-78
2022/07/20 10:12:41;;;;;;;16.73;13.18;;;28.20;53.20;;;;;;5092624;28;20429;-76
2022/07/20 10:15:21;;;;;;;16.45;12.32;;;28.20;53.10;;;;;;5092152;28;20174;-77
2022/07/20 10:17:47;;;;;;;18.27;12.15;;;28.20;53.70;;;;;;5092603;28;20070;-79
2022/07/20 10:20:33;;;;;;;17.63;12.05;;;28.20;53.00;;;;;;5092266;28;20039;-78
2022/07/20 10:23:14;;;;;;;13.88;10.18;;;28.10;51.70;;;;;;5076148;28;20080;-78
2022/07/20 10:25:40;;;;;;;14.18;9.68;;;28.20;50.10;;;;;;5091860;28;20101;-78
2022/07/20 10:28:29;;;;;;;13.00;9.60;;;28.30;48.80;;;;;;5112294;28;20560;-80
2022/07/20 10:31:02;;;;;;;17.35;10.73;;;28.30;48.40;;;;;;5112576;28;20048;-78
2022/07/20 10:33:30;;;;;;;15.55;10.15;;;28.40;49.00;;;;;;5095435;28;20055;-77
2022/07/20 10:36:41;;;;;;;16.75;10.98;;;28.40;49.30;;;;;;5095090;28;20547;-77
2022/07/20 10:38:45;;;;;;;13.75;9.73;;;28.40;49.70;;;;;;5094637;28;20049;-79
2022/07/20 10:44:20;;;;;;;10.13;7.53;;;28.60;48.30;;;;;;5095105;28;20088;-80
2022/07/20 10:46:47;;;;;;;14.95;9.30;;;28.60;47.50;;;;;;5112173;28;20040;-77
2022/07/20 10:49:14;;;;;;;13.88;7.53;;;28.70;46.40;;;;;;5112034;28;20429;-79
2022/07/20 10:51:40;;;;;;;17.55;8.27;;;28.70;46.50;;;;;;5111938;28;20042;-78
2022/07/20 10:54:30;;;;;;;13.85;8.45;;;28.70;47.10;;;;;;5112290;28;20391;-77
2022/07/20 10:56:58;;;;;;;18.35;9.90;;;28.80;48.00;;;;;;5111759;28;20039;-78
2022/07/20 10:59:24;;;;;;;14.27;9.40;;;28.90;47.60;;;;;;5094849;28;20491;-79
2022/07/20 11:01:50;;;;;;;15.60;9.27;;;28.90;47.20;;;;;;5078454;28;20074;-78
2022/07/20 11:04:17;;;;;;;16.13;10.73;;;29.00;47.20;;;;;;5078388;28;20499;-79
2022/07/20 11:06:42;;;;;;;16.92;11.57;;;29.00;46.70;;;;;;5094895;28;20565;-78
2022/07/20 11:09:08;;;;;;;15.63;9.73;;;29.10;46.80;;;;;;5094943;28;20039;-79
2022/07/20 11:11:36;;;;;;;14.48;10.18;;;29.20;47.40;;;;;;5077928;28;20063;-80
2022/07/20 11:14:05;;;;;;;11.52;10.10;;;29.10;46.80;;;;;;5078007;28;20555;-77
2022/07/20 11:16:32;;;;;;;14.93;10.65;;;29.10;46.00;;;;;;5094919;28;20082;-79
2022/07/20 11:18:59;;;;;;;14.35;10.15;;;29.00;46.00;;;;;;5094920;28;20070;-78
2022/07/20 11:21:31;;;;;;;12.07;9.68;;;28.90;45.20;;;;;;5094873;28;20192;-77
2022/07/20 11:23:57;;;;;;;12.57;9.15;;;28.90;45.70;;;;;;5111888;28;20395;-79
2022/07/20 11:26:23;;;;;;;15.88;9.45;;;28.80;47.00;;;;;;5108205;28;20052;-79
2022/07/20 11:28:54;;;;;;;15.75;10.95;;;28.90;47.10;;;;;;5108440;28;20144;-79
2022/07/20 11:31:23;;;;;;;15.82;11.05;;;28.80;47.50;;;;;;5108497;28;20044;-79
2022/07/20 11:33:50;;;;;;;13.25;10.77;;;28.90;47.60;;;;;;5091176;28;20069;-78
2022/07/20 11:36:22;;;;;;;17.27;11.30;;;29.10;47.00;;;;;;5091306;28;20047;-78
2022/07/20 11:38:59;;;;;;;15.55;11.60;;;29.10;47.10;;;;;;5091627;28;20189;-78
2022/07/20 11:41:37;;;;;;;15.35;10.70;;;29.20;47.40;;;;;;5091553;28;20118;-78
2022/07/20 11:44:05;;;;;;;10.77;9.05;;;29.30;46.50;;;;;;5091263;28;20128;-79
2022/07/20 11:46:40;;;;;;;14.18;8.98;;;29.40;44.90;;;;;;5074240;28;20487;-77
2022/07/20 11:49:08;;;;;;;9.63;6.82;;;29.20;44.20;;;;;;5109012;28;20126;-78
2022/07/20 11:51:36;;;;;;;11.52;6.97;;;29.10;42.90;;;;;;5111835;28;20045;-79
2022/07/20 11:54:06;;;;;;;11.10;7.05;;;29.30;43.10;;;;;;5111834;28;20039;-79
2022/07/20 11:56:33;;;;;;;8.02;6.32;;;29.30;44.00;;;;;;5077852;28;20036;-79
2022/07/20 11:59:00;;;;;;;6.35;5.75;;;29.30;43.20;;;;;;5111985;28;20048;-77
2022/07/20 12:01:32;;;;;;;7.53;5.22;;;29.30;42.40;;;;;;5111704;28;20043;-78
2022/07/20 12:04:09;;;;;;;8.68;5.50;;;29.20;42.30;;;;;;5078073;28;20286;-79
2022/07/20 12:06:40;;;;;;;9.95;6.75;;;29.40;42.00;;;;;;5078345;28;20040;-78
2022/07/20 12:09:15;;;;;;;8.98;6.60;;;29.40;41.60;;;;;;5111436;28;20135;-78
2022/07/20 12:12:00;;;;;;;9.23;7.40;;;29.50;42.50;;;;;;5111486;28;20511;-79
2022/07/20 12:14:31;;;;;;;9.65;7.88;;;29.50;43.10;;;;;;5111496;28;20035;-78
2022/07/20 12:17:09;;;;;;;13.73;8.00;;;29.70;43.50;;;;;;5111601;28;20120;-78
2022/07/20 12:19:35;;;;;;;11.43;7.88;;;29.80;43.90;;;;;;5062556;28;20055;-79
2022/07/20 12:22:00;;;;;;;12.38;7.95;;;29.90;43.50;;;;;;5077449;28;20102;-78
2022/07/20 12:24:26;;;;;;;12.02;8.13;;;30.10;42.90;;;;;;5111214;28;20450;-80
2022/07/20 12:27:04;;;;;;;8.52;7.53;;;30.10;43.30;;;;;;5077233;28;20056;-77
2022/07/20 12:29:30;;;;;;;10.73;8.32;;;30.30;43.10;;;;;;5111173;28;20119;-77
2022/07/20 12:32:07;;;;;;;11.45;8.32;;;30.30;42.70;;;;;;5077173;28;20474;-78
2022/07/20 12:34:53;;;;;;;13.00;8.48;;;30.30;42.60;;;;;;5111045;28;20040;-78
2022/07/20 12:37:21;;;;;;;12.85;9.20;;;30.30;42.50;;;;;;5077317;28;20495;-78
2022/07/20 12:39:53;;;;;;;10.80;8.73;;;30.20;42.30;;;;;;5093800;28;20079;-78
2022/07/20 12:42:23;;;;;;;11.77;9.15;;;30.10;43.50;;;;;;5077725;28;20040;-79
2022/07/20 12:44:58;;;;;;;10.07;8.88;;;30.00;44.40;;;;;;5110871;28;20119;-77
2022/07/20 12:47:24;;;;;;;14.32;9.20;;;30.20;44.00;;;;;;5111031;28;20116;-79